Weather reports worldwide

Advertisment
Luchon/SA, France (7724): temperature & dewpoint: 02.07.2020 06:00:00 - 08.07.2020 06:00:00 (CEST)Luchon/SA, France (7724): wind speed & gusts: 02.07.2020 06:00:00 - 08.07.2020 06:00:00 (CEST)Luchon/SA, France (7724): wind direction: 02.07.2020 06:00:00 - 08.07.2020 06:00:00 (CEST)Luchon/SA, France (7724): precipitation: 02.07.2020 06:00:00 - 08.07.2020 06:00:00 (CEST)
Date & Time tt [°C] td [°C] ff [km/h] ff [kn] fx [km/h] fx [kn] dd rr [mm]
08.07.2020 06:00:00 - - - - - - - -
08.07.2020 05:00:00 11,9 11,7 2 1 5 3 NNE 0,0
08.07.2020 04:00:00 12,8 12,5 0 0 3 2 N 0,0
08.07.2020 03:00:00 13,8 12,9 0 0 10 5 N 0,0
08.07.2020 02:00:00 15,7 13,9 6 3 10 5 N 0,0
08.07.2020 01:00:00 16,9 14,7 0 0 5 3 N 0,0
08.07.2020 00:00:00 17,1 14,7 0 0 5 3 N 0,0
07.07.2020 23:00:00 18,0 14,3 3 2 8 4 S 0,0
07.07.2020 22:00:00 18,6 14,3 3 2 6 4 SSW 0,0
07.07.2020 21:00:00 19,6 13,1 5 3 25 14 ESE 0,0
07.07.2020 20:00:00 20,9 13,8 13 7 28 15 N 0,0
07.07.2020 19:00:00 22,0 14,1 15 8 37 20 N 0,0
07.07.2020 18:00:00 23,1 14,6 16 9 43 23 N 0,0
07.07.2020 17:00:00 23,6 15,1 19 10 39 21 N 0,0
07.07.2020 16:00:00 23,3 14,6 20 11 45 24 N 0,0
07.07.2020 15:00:00 23,0 14,6 21 12 38 20 N 0,0
07.07.2020 14:00:00 22,4 14,3 19 10 35 19 N 0,0
07.07.2020 13:00:00 21,9 15,3 15 8 26 14 N 0,0
07.07.2020 12:00:00 21,1 14,7 5 3 15 8 NNE 0,0
07.07.2020 11:00:00 19,6 13,8 3 2 11 6 ENE 0,0
07.07.2020 10:00:00 17,5 13,4 2 1 7 4 SSE 0,0
07.07.2020 09:00:00 15,7 12,8 2 1 6 4 ENE 0,0
07.07.2020 08:00:00 14,6 12,8 3 2 8 4 NE 0,0
07.07.2020 07:00:00 14,4 12,8 2 1 9 5 NNE 0,0
07.07.2020 06:00:00 14,3 12,3 3 2 22 12 WNW 0,0
07.07.2020 05:00:00 14,3 13,0 14 7 21 11 NNE 0,0
07.07.2020 04:00:00 14,7 13,6 0 0 22 12 N 0,0
07.07.2020 03:00:00 14,7 13,7 11 6 21 11 NNE 0,0
07.07.2020 02:00:00 15,5 14,2 7 4 23 12 NNE 0,0
07.07.2020 01:00:00 15,7 14,6 14 8 29 15 NNE 0,0
07.07.2020 00:00:00 16,5 14,7 16 9 29 16 NNE 0,0
06.07.2020 23:00:00 17,4 14,9 12 6 24 13 NNE 0,0
06.07.2020 22:00:00 17,6 15,6 12 7 25 14 NNE 0,0
06.07.2020 21:00:00 17,9 15,9 12 6 31 17 N 0,0
06.07.2020 20:00:00 19,4 15,7 15 8 32 18 N 0,0
06.07.2020 19:00:00 19,9 15,9 14 8 34 18 N 0,0
06.07.2020 18:00:00 20,3 16,3 18 10 37 20 N 0,0
06.07.2020 17:00:00 21,1 16,1 21 11 48 26 N 0,0
06.07.2020 16:00:00 22,4 17,3 21 11 41 22 N 0,0
06.07.2020 15:00:00 22,5 16,8 18 10 34 18 N 0,0
06.07.2020 14:00:00 21,2 16,4 18 10 40 21 N 0,0
06.07.2020 13:00:00 20,6 16,4 19 11 32 17 N 0,0
06.07.2020 12:00:00 19,5 16,2 8 4 19 10 N 0,0
06.07.2020 11:00:00 17,7 15,1 0 0 13 7 N 0,0
06.07.2020 10:00:00 16,8 14,8 5 3 21 11 N 0,0
06.07.2020 09:00:00 16,2 14,6 15 8 30 16 NNE 0,0
06.07.2020 08:00:00 16,2 14,7 13 7 23 12 N 0,0
06.07.2020 07:00:00 16,2 15,6 6 4 16 8 N 0,0
06.07.2020 06:00:00 16,8 15,8 5 3 11 6 SE 0,0
06.07.2020 05:00:00 18,2 16,0 0 0 16 8 N 0,0
06.07.2020 04:00:00 18,9 16,1 4 2 19 11 N 0,0
06.07.2020 03:00:00 19,3 16,5 3 2 25 14 NNE 0,0
06.07.2020 02:00:00 19,3 17,1 4 2 11 6 N 0,0
06.07.2020 01:00:00 19,8 17,9 0 0 6 3 N 0,0
06.07.2020 00:00:00 19,9 17,7 0 0 4 2 N 0,0
05.07.2020 23:00:00 20,8 17,6 0 0 6 4 N 0,0
05.07.2020 22:00:00 21,3 17,9 4 2 18 10 SE 0,0
05.07.2020 21:00:00 23,3 17,1 9 5 29 16 N 0,0
05.07.2020 20:00:00 24,1 17,3 16 9 35 19 N 0,0
05.07.2020 19:00:00 25,7 17,1 16 9 37 20 N 0,0
05.07.2020 18:00:00 26,4 16,6 19 11 42 23 N 0,0
05.07.2020 17:00:00 27,0 16,3 18 10 40 22 N 0,0
05.07.2020 16:00:00 26,6 15,9 22 12 36 19 N 0,0
05.07.2020 15:00:00 26,5 15,5 18 10 32 17 N 0,0
05.07.2020 14:00:00 25,6 15,6 18 10 32 17 NNE 0,0
05.07.2020 13:00:00 24,5 14,6 12 7 25 13 N 0,0
05.07.2020 12:00:00 23,2 12,8 9 5 19 10 N 0,0
05.07.2020 11:00:00 21,2 13,1 3 2 12 7 ENE 0,0
05.07.2020 10:00:00 19,1 12,1 2 1 8 4 E 0,0
05.07.2020 09:00:00 14,6 12,6 2 1 6 3 SE 0,0
05.07.2020 08:00:00 11,5 11,5 2 1 5 3 SSE 0,0
05.07.2020 07:00:00 10,3 10,3 0 0 4 2 N 0,0
05.07.2020 06:00:00 10,5 10,5 0 0 6 3 N 0,0
05.07.2020 05:00:00 11,1 10,9 2 1 4 2 NNE 0,0
05.07.2020 04:00:00 11,3 11,3 2 1 5 3 SE 0,0
05.07.2020 03:00:00 12,6 12,6 3 1 5 3 NNW 0,0
05.07.2020 02:00:00 12,8 12,6 0 0 5 3 N 0,0
05.07.2020 01:00:00 13,8 13,5 2 1 12 6 N 0,0
05.07.2020 00:00:00 15,4 13,9 8 4 22 12 SSW 0,0
04.07.2020 23:00:00 15,2 14,2 0 0 4 2 N 0,0
04.07.2020 22:00:00 16,2 14,2 0 0 6 3 N 0,0
04.07.2020 21:00:00 18,8 14,7 2 1 20 11 WSW 0,0
04.07.2020 20:00:00 19,8 14,6 11 6 27 15 NNE 0,0
04.07.2020 19:00:00 22,2 15,3 15 8 31 17 N 0,0
04.07.2020 18:00:00 22,6 15,2 18 10 - - N 0,0
04.07.2020 17:00:00 22,9 14,5 19 10 40 22 N 0,0
04.07.2020 16:00:00 22,7 14,5 20 11 37 20 N 0,0
04.07.2020 15:00:00 22,2 15,3 19 10 35 19 N 0,0
04.07.2020 14:00:00 21,5 14,6 18 10 32 18 N 0,0
04.07.2020 13:00:00 20,4 12,9 17 9 33 18 N 0,0
04.07.2020 12:00:00 19,3 12,8 11 6 23 12 N 0,0
04.07.2020 11:00:00 17,2 11,2 6 4 16 8 N 0,0
04.07.2020 10:00:00 15,3 9,6 2 1 8 5 S 0,0
04.07.2020 09:00:00 12,3 9,5 4 2 8 4 S 0,0
04.07.2020 08:00:00 9,9 9,3 3 2 17 9 SE 0,0
04.07.2020 07:00:00 9,5 8,6 7 4 16 9 SE 0,0
04.07.2020 06:00:00 9,5 9,2 5 3 13 7 SE 0,0
04.07.2020 05:00:00 10,5 10,0 2 1 6 3 ESE 0,0
04.07.2020 04:00:00 12,3 11,5 3 1 5 3 E 0,0
04.07.2020 03:00:00 13,0 12,2 0 0 4 2 N 0,0
04.07.2020 02:00:00 13,2 11,8 2 1 9 5 N 0,0
04.07.2020 01:00:00 13,2 11,6 5 3 10 5 SSE 0,0
04.07.2020 00:00:00 13,5 12,1 2 1 8 5 S 0,0
03.07.2020 23:00:00 14,6 12,1 4 2 14 8 S 0,0
03.07.2020 22:00:00 15,0 11,9 5 3 16 9 SSE 0,0
03.07.2020 21:00:00 15,6 11,8 10 5 16 9 S 0,0
03.07.2020 20:00:00 16,2 12,7 5 3 12 6 S 0,0
03.07.2020 19:00:00 16,4 12,0 4 2 11 6 NE 0,0
03.07.2020 18:00:00 16,9 11,0 8 4 24 13 N 0,0
03.07.2020 17:00:00 16,9 11,4 10 6 32 17 NNW 0,0
03.07.2020 16:00:00 16,9 11,2 18 10 33 18 N 0,0
03.07.2020 15:00:00 17,0 11,5 16 9 34 18 N 0,0
03.07.2020 14:00:00 16,4 11,1 16 8 38 21 N 0,0
03.07.2020 13:00:00 15,5 11,7 22 12 - - N 0,0
03.07.2020 12:00:00 14,8 11,9 18 10 34 18 N 0,0
03.07.2020 11:00:00 14,9 12,0 9 5 21 12 NNE 0,0
03.07.2020 10:00:00 14,0 11,5 9 5 21 11 NE 0,0
03.07.2020 09:00:00 13,5 11,7 4 2 13 7 NE 0,0
03.07.2020 08:00:00 12,7 11,8 3 2 19 10 N 0,0
03.07.2020 07:00:00 12,5 11,6 4 2 9 5 NNE 0,2
03.07.2020 06:00:00 12,7 11,9 3 1 8 5 E 0,0
03.07.2020 05:00:00 12,9 11,5 4 2 18 10 NNE 0,0
03.07.2020 04:00:00 12,9 11,6 3 1 13 7 ENE 0,0
03.07.2020 03:00:00 12,8 11,7 4 2 18 10 N 0,0
03.07.2020 02:00:00 12,9 12,1 11 6 24 13 NNE 0,0
03.07.2020 01:00:00 13,5 12,9 8 5 18 10 N 0,0
03.07.2020 00:00:00 14,0 13,0 8 5 19 11 N 0,0
02.07.2020 23:00:00 14,2 12,9 10 5 24 13 NNE 0,0
02.07.2020 22:00:00 14,8 12,8 16 9 39 21 NNE 0,0
02.07.2020 21:00:00 15,6 14,3 10 5 26 14 NE 0,0
02.07.2020 20:00:00 16,4 14,4 5 3 15 8 N 0,0
02.07.2020 19:00:00 16,5 14,7 3 2 24 13 NE 0,0
02.07.2020 18:00:00 17,1 14,2 15 8 - - NNE 0,0
02.07.2020 17:00:00 16,8 14,4 24 13 42 23 NNE 0,0
02.07.2020 16:00:00 17,3 14,4 21 12 39 21 N 0,0
02.07.2020 15:00:00 17,5 14,8 21 11 41 22 N 0,0
02.07.2020 14:00:00 18,8 14,7 18 10 37 20 N 0,0
02.07.2020 13:00:00 17,7 15,1 20 11 38 21 N 0,2
02.07.2020 12:00:00 17,3 15,1 15 8 - - NNE 0,0
02.07.2020 11:00:00 16,7 14,7 18 10 36 19 NNE 0,0
02.07.2020 10:00:00 17,0 15,2 18 10 32 17 NNE 0,0
02.07.2020 09:00:00 17,6 16,1 8 4 22 12 N 0,0
02.07.2020 08:00:00 17,2 16,2 4 2 9 5 N 0,0
02.07.2020 07:00:00 17,1 16,0 4 2 8 5 NW 0,0
02.07.2020 06:00:00 17,1 16,1 3 1 11 6 S 0,0

tt = temperature
td = dewpoint
ff = wind speed
fx = gusts
dd = wind direction
rr = precipitation

Next stations